Terminal Aerodrome Forecast
Issued by NWS

Home | Current Version | Previous Version | Text Only | Print | Product List | Glossary On
Versions: 1 2 3 4 5 6 7 8 9 10 11 12 13 14 15
803
FTUS46 KMFR 271747
TAFRBG
TAF
KRBG 271747Z 2718/2818 VRB03KT P6SM OVC040
     FM272200 36012G20KT P6SM SKC
     FM280300 VRB03KT P6SM SCT040=

USA.gov is the U.S. government's official web portal to all federal, state and local government web resources and services.